createdAt,value
2022-10-23T00:02:14.160Z,91.66
2022-10-23T00:04:44.305Z,91.71
2022-10-23T00:07:14.437Z,91.44
2022-10-23T00:09:44.530Z,91.42
2022-10-23T00:12:14.710Z,91.73
2022-10-23T00:14:44.865Z,91.42
2022-10-23T00:17:15.026Z,91.25
2022-10-23T00:19:45.081Z,91.39
2022-10-23T00:22:15.157Z,91.20
2022-10-23T00:24:45.270Z,91.38
2022-10-23T00:27:15.441Z,91.18
2022-10-23T00:29:45.814Z,91.20
2022-10-23T00:32:15.952Z,91.28
2022-10-23T00:34:46.130Z,91.24
2022-10-23T00:37:16.429Z,91.40
2022-10-23T00:39:46.489Z,91.25
2022-10-23T00:42:18.509Z,91.23
2022-10-23T00:44:51.371Z,91.27
2022-10-23T00:47:21.850Z,91.36
2022-10-23T00:49:52.127Z,91.51
2022-10-23T00:52:22.309Z,91.34
2022-10-23T00:54:52.891Z,91.33
2022-10-23T00:57:23.130Z,91.53
2022-10-23T00:59:53.534Z,91.62
2022-10-23T01:02:24.834Z,91.65
2022-10-23T01:04:55.062Z,91.74
2022-10-23T01:07:33.505Z,91.95
2022-10-23T01:10:16.981Z,92.33
2022-10-23T01:13:00.604Z,91.93
2022-10-23T01:15:40.135Z,92.63
2022-10-23T01:18:22.185Z,92.76
2022-10-23T01:21:01.396Z,92.91
2022-10-23T01:23:49.876Z,93.25
2022-10-23T01:26:51.559Z,93.00
2022-10-23T01:29:35.470Z,92.62
2022-10-23T01:32:20.130Z,93.13
2022-10-23T01:34:58.040Z,93.28
2022-10-23T01:37:57.775Z,92.82
2022-10-23T01:40:35.671Z,93.07
2022-10-23T01:43:14.329Z,92.57
2022-10-23T01:45:50.949Z,92.94
2022-10-23T01:48:29.069Z,92.97
2022-10-23T01:51:04.851Z,92.86
2022-10-23T01:53:38.682Z,92.80
2022-10-23T01:56:13.108Z,92.97
2022-10-23T01:58:47.739Z,93.08
2022-10-23T02:01:22.475Z,92.98
2022-10-23T02:03:54.671Z,93.00
2022-10-23T02:06:24.879Z,92.72
2022-10-23T02:08:55.108Z,92.36
2022-10-23T02:11:25.278Z,92.95
2022-10-23T02:14:20.340Z,93.04
2022-10-23T02:16:54.763Z,92.53
2022-10-23T02:19:46.088Z,93.15
2022-10-23T02:22:26.093Z,92.47
2022-10-23T02:25:03.865Z,92.43
2022-10-23T02:27:33.861Z,92.61
2022-10-23T02:30:07.493Z,92.17
2022-10-23T02:32:42.404Z,92.50
2022-10-23T02:35:13.540Z,92.69
2022-10-23T02:37:44.326Z,92.76
2022-10-23T02:40:14.757Z,92.83
2022-10-23T02:43:11.213Z,92.70
2022-10-23T02:46:00.048Z,92.81
2022-10-23T02:48:41.295Z,92.50
2022-10-23T02:51:18.606Z,92.18
2022-10-23T02:53:48.747Z,92.50
2022-10-23T02:56:29.311Z,92.50
2022-10-23T02:59:22.424Z,92.31
2022-10-23T03:02:00.374Z,92.33
2022-10-23T03:04:32.500Z,92.07
2022-10-23T03:07:02.679Z,92.41
2022-10-23T03:09:32.801Z,92.42
2022-10-23T03:12:02.979Z,92.06
2022-10-23T03:14:33.198Z,91.95
2022-10-23T03:17:04.470Z,92.20
2022-10-23T03:19:34.630Z,92.42
2022-10-23T03:22:04.818Z,92.05
2022-10-23T03:24:34.952Z,92.40
2022-10-23T03:27:05.062Z,92.01
2022-10-23T03:29:35.184Z,91.91
2022-10-23T03:32:05.479Z,92.09
2022-10-23T03:34:35.821Z,92.16
2022-10-23T03:37:06.081Z,92.29
2022-10-23T03:39:36.189Z,92.30
2022-10-23T03:42:06.413Z,92.15
2022-10-23T03:44:36.733Z,92.32
2022-10-23T03:47:07.130Z,92.16
2022-10-23T03:49:37.365Z,92.42
2022-10-23T03:52:08.824Z,92.15
2022-10-23T03:54:38.954Z,92.27
2022-10-23T03:57:09.052Z,92.17
2022-10-23T03:59:39.236Z,92.10
2022-10-23T04:02:09.290Z,92.00
2022-10-23T04:04:39.518Z,92.18
2022-10-23T04:07:10.107Z,92.02
2022-10-23T04:09:40.157Z,92.02
2022-10-23T04:12:10.358Z,91.98
2022-10-23T04:14:40.538Z,91.83
2022-10-23T04:17:10.636Z,91.76
2022-10-23T04:19:40.791Z,91.69
2022-10-23T04:22:10.996Z,91.67
2022-10-23T04:24:46.681Z,91.51
2022-10-23T04:27:16.878Z,91.63
2022-10-23T04:29:46.977Z,91.29
2022-10-23T04:32:17.113Z,91.46
2022-10-23T04:34:47.210Z,91.24
2022-10-23T04:37:17.657Z,91.22
2022-10-23T04:39:47.795Z,91.39
2022-10-23T04:42:17.922Z,91.59
2022-10-23T04:44:48.069Z,91.79
2022-10-23T04:47:18.192Z,91.87
2022-10-23T04:49:48.331Z,91.76
2022-10-23T04:52:18.566Z,92.11
2022-10-23T04:54:48.849Z,92.10
2022-10-23T04:57:18.880Z,92.15
2022-10-23T04:59:48.991Z,91.85
2022-10-23T05:02:19.145Z,92.09
2022-10-23T05:04:49.302Z,92.19
2022-10-23T05:07:19.371Z,92.24
2022-10-23T05:09:49.642Z,92.20
2022-10-23T05:12:20.186Z,92.15
2022-10-23T05:14:50.271Z,92.14
2022-10-23T05:17:29.332Z,92.21
2022-10-23T05:20:02.773Z,91.94
2022-10-23T05:22:36.654Z,92.24
2022-10-23T05:25:07.032Z,92.25
2022-10-23T05:27:37.188Z,92.20
2022-10-23T05:30:07.929Z,92.36
2022-10-23T05:32:38.888Z,92.30
2022-10-23T05:35:13.839Z,92.43
2022-10-23T05:37:47.304Z,92.25
2022-10-23T05:40:17.770Z,92.29
2022-10-23T05:42:48.268Z,92.21
2022-10-23T05:45:18.689Z,92.25
2022-10-23T05:47:49.420Z,92.28
2022-10-23T05:50:20.041Z,92.41
2022-10-23T05:52:50.222Z,92.30
2022-10-23T05:55:20.294Z,92.21
2022-10-23T05:57:50.336Z,92.11
2022-10-23T06:00:20.924Z,92.22
2022-10-23T06:02:50.969Z,92.35
2022-10-23T06:05:21.204Z,92.66
2022-10-23T06:07:51.390Z,92.39
2022-10-23T06:10:22.234Z,92.61
2022-10-23T06:12:52.427Z,92.56
2022-10-23T06:15:22.494Z,92.19
2022-10-23T06:17:52.634Z,92.40
2022-10-23T06:20:26.575Z,92.37
2022-10-23T06:22:59.054Z,92.43
2022-10-23T06:25:29.175Z,92.52
2022-10-23T06:28:02.511Z,92.32
2022-10-23T06:30:33.056Z,92.39
2022-10-23T06:33:05.835Z,92.53
2022-10-23T06:35:41.448Z,92.62
2022-10-23T06:38:16.960Z,92.54
2022-10-23T06:40:56.677Z,92.81
2022-10-23T06:43:28.163Z,92.70
2022-10-23T06:46:01.943Z,92.93
2022-10-23T06:48:33.996Z,92.64
2022-10-23T06:51:10.750Z,93.02
2022-10-23T06:53:41.795Z,93.13
2022-10-23T06:56:12.348Z,93.15
2022-10-23T06:58:43.572Z,93.17
2022-10-23T07:01:15.159Z,93.23
2022-10-23T07:03:45.558Z,93.40
2022-10-23T07:06:15.770Z,93.28
2022-10-23T07:08:45.920Z,93.44
2022-10-23T07:11:16.419Z,93.57
2022-10-23T07:13:46.874Z,93.50
2022-10-23T07:16:20.507Z,93.59
2022-10-23T07:19:00.323Z,93.65
2022-10-23T07:21:34.849Z,93.51
2022-10-23T07:24:05.173Z,93.57
2022-10-23T07:26:35.694Z,93.55
2022-10-23T07:29:05.930Z,93.59
2022-10-23T07:31:36.174Z,93.95
2022-10-23T07:34:06.885Z,93.90
2022-10-23T07:36:37.610Z,93.93
2022-10-23T07:39:07.930Z,93.99
2022-10-23T07:41:38.683Z,93.97
2022-10-23T07:44:08.993Z,94.41
2022-10-23T07:46:39.248Z,94.42
2022-10-23T07:49:11.197Z,94.41
2022-10-23T07:51:41.516Z,94.66
2022-10-23T07:54:12.554Z,95.04
2022-10-23T07:56:42.807Z,94.83
2022-10-23T07:59:17.706Z,95.05
2022-10-23T08:01:55.960Z,94.89
2022-10-23T08:04:29.951Z,94.80
2022-10-23T08:07:01.485Z,95.09
2022-10-23T08:09:32.298Z,94.90
2022-10-23T08:12:02.421Z,94.63
2022-10-23T08:14:32.609Z,94.63
2022-10-23T08:17:04.372Z,94.65
2022-10-23T08:19:34.683Z,94.80
2022-10-23T08:22:05.134Z,95.02
2022-10-23T08:24:35.269Z,95.08
2022-10-23T08:27:05.641Z,94.89
2022-10-23T08:29:36.295Z,94.72
2022-10-23T08:32:06.528Z,94.55
2022-10-23T08:34:38.093Z,94.61
2022-10-23T08:37:08.260Z,94.61
2022-10-23T08:39:43.950Z,94.58
2022-10-23T08:42:27.790Z,94.99
2022-10-23T08:45:21.682Z,94.91
2022-10-23T08:47:56.108Z,94.25
2022-10-23T08:50:30.813Z,94.39
2022-10-23T08:53:21.531Z,94.35
2022-10-23T08:56:09.539Z,94.96
2022-10-23T08:58:47.339Z,94.49
2022-10-23T09:01:41.121Z,95.09
2022-10-23T09:04:15.841Z,95.02
2022-10-23T09:10:04.253Z,94.83
2022-10-23T09:12:34.858Z,94.56
2022-10-23T09:15:13.187Z,94.79
2022-10-23T09:17:44.394Z,94.57
2022-10-23T09:20:22.024Z,94.95
2022-10-23T09:23:01.397Z,95.23
2022-10-23T09:25:37.143Z,95.01
2022-10-23T09:28:14.321Z,94.84
2022-10-23T09:30:44.450Z,94.59
2022-10-23T09:33:22.461Z,94.65
2022-10-23T09:35:54.395Z,94.70
2022-10-23T09:38:29.563Z,94.83
2022-10-23T09:41:06.358Z,94.56
2022-10-23T09:43:36.489Z,94.76
2022-10-23T09:46:07.759Z,94.32
2022-10-23T09:48:39.020Z,94.69
2022-10-23T09:51:22.195Z,95.11
2022-10-23T09:53:57.274Z,94.89
2022-10-23T09:56:32.256Z,95.00
2022-10-23T09:59:11.322Z,94.71
2022-10-23T10:01:51.619Z,94.80
2022-10-23T10:04:35.727Z,95.22
2022-10-23T10:07:24.615Z,95.44
2022-10-23T10:09:56.876Z,95.14
2022-10-23T10:12:42.377Z,95.30
2022-10-23T10:15:35.610Z,95.95
2022-10-23T10:18:27.109Z,95.86
2022-10-23T10:21:18.208Z,95.42
2022-10-23T10:24:02.683Z,95.37
2022-10-23T10:26:57.884Z,95.90
2022-10-23T10:30:02.197Z,96.10
2022-10-23T10:32:53.975Z,95.76
2022-10-23T10:35:40.056Z,95.29
2022-10-23T10:38:28.622Z,95.43
2022-10-23T10:41:21.525Z,96.33
2022-10-23T10:44:23.770Z,96.36
2022-10-23T10:47:03.999Z,95.79
2022-10-23T10:50:01.295Z,96.01
2022-10-23T10:53:02.844Z,95.48
2022-10-23T10:55:38.605Z,95.49
2022-10-23T10:58:18.457Z,95.39
2022-10-23T11:00:55.150Z,95.17
2022-10-23T11:03:39.823Z,95.36
2022-10-23T11:06:16.360Z,95.27
2022-10-23T11:08:57.277Z,95.20
2022-10-23T11:11:43.798Z,95.61
2022-10-23T11:14:18.876Z,95.36
2022-10-23T11:16:52.221Z,95.15
2022-10-23T11:19:27.645Z,95.15
2022-10-23T11:22:10.212Z,95.46
2022-10-23T11:25:05.389Z,96.33
2022-10-23T11:28:03.665Z,95.49
2022-10-23T11:30:54.709Z,95.79
2022-10-23T11:34:01.580Z,96.06
2022-10-23T11:36:49.297Z,96.66
2022-10-23T11:39:27.455Z,96.07
2022-10-23T11:42:00.557Z,95.67
2022-10-23T11:44:40.690Z,96.20
2022-10-23T11:47:36.379Z,96.88
2022-10-23T11:50:09.452Z,95.95
2022-10-23T11:53:09.250Z,96.13
2022-10-23T11:56:19.921Z,96.29
2022-10-23T11:58:56.873Z,95.75
2022-10-23T12:01:36.292Z,95.29
2022-10-23T12:04:17.654Z,95.47
2022-10-23T12:07:29.859Z,95.77
2022-10-23T12:10:27.160Z,94.61
2022-10-23T12:13:06.086Z,94.45
2022-10-23T12:15:36.226Z,94.52
2022-10-23T12:18:15.488Z,94.23
2022-10-23T12:21:04.819Z,94.01
2022-10-23T12:23:54.311Z,93.91
2022-10-23T12:26:36.254Z,94.04
2022-10-23T12:29:21.681Z,93.08
2022-10-23T12:32:40.341Z,93.55
2022-10-23T12:35:48.881Z,94.23
2022-10-23T12:38:33.957Z,92.80
2022-10-23T12:41:14.459Z,93.54
2022-10-23T12:43:50.576Z,93.31
2022-10-23T12:46:20.610Z,93.01
2022-10-23T12:48:53.034Z,92.69
2022-10-23T12:51:25.630Z,92.46
2022-10-23T12:53:56.361Z,92.35
2022-10-23T12:56:29.416Z,92.21
2022-10-23T12:59:02.099Z,92.26
2022-10-23T13:01:40.410Z,91.70
2022-10-23T13:04:33.224Z,92.04
2022-10-23T13:07:04.400Z,92.00
2022-10-23T13:09:41.921Z,91.94
2022-10-23T13:12:37.012Z,93.14
2022-10-23T13:15:07.143Z,92.08
2022-10-23T13:17:40.975Z,92.66
2022-10-23T13:20:17.901Z,91.68
2022-10-23T13:23:00.773Z,91.37
2022-10-23T13:25:37.197Z,91.71
2022-10-23T13:28:32.472Z,90.96
2022-10-23T13:31:06.470Z,91.04
2022-10-23T13:33:40.536Z,91.58
2022-10-23T13:36:13.578Z,91.91
2022-10-23T13:38:59.641Z,90.97
2022-10-23T13:41:37.827Z,90.61
2022-10-23T13:44:11.929Z,90.81
2022-10-23T13:46:43.051Z,91.11
2022-10-23T13:49:13.227Z,90.74
2022-10-23T13:51:53.061Z,91.01
2022-10-23T13:57:03.353Z,90.22
2022-10-23T13:59:33.595Z,90.90
2022-10-23T14:02:05.876Z,89.98
2022-10-23T14:04:36.338Z,89.89
2022-10-23T14:07:06.529Z,90.53
2022-10-23T14:09:36.614Z,90.27
2022-10-23T14:12:06.849Z,90.30
2022-10-23T14:14:37.079Z,90.34
2022-10-23T14:17:07.144Z,90.37
2022-10-23T14:22:12.919Z,89.66
2022-10-23T14:24:43.031Z,89.27
2022-10-23T14:27:13.078Z,89.57
2022-10-23T14:29:43.248Z,87.91
2022-10-23T14:32:13.398Z,88.66
2022-10-23T14:34:45.970Z,89.09
2022-10-23T14:37:16.410Z,89.21
2022-10-23T14:39:49.936Z,89.25
2022-10-23T14:42:20.558Z,88.82
2022-10-23T14:44:50.669Z,89.21
2022-10-23T14:47:20.782Z,89.45
2022-10-23T14:49:53.216Z,89.10
2022-10-23T14:52:23.872Z,89.43
2022-10-23T14:54:54.311Z,89.33
2022-10-23T14:57:25.024Z,89.61
2022-10-23T14:59:55.125Z,89.43
2022-10-23T15:02:25.218Z,89.45
2022-10-23T15:04:55.668Z,89.17
2022-10-23T15:07:25.835Z,89.35
2022-10-23T15:09:55.981Z,88.93
2022-10-23T15:12:26.149Z,88.89
2022-10-23T15:14:56.270Z,89.08
2022-10-23T15:17:26.298Z,89.12
2022-10-23T15:19:56.394Z,88.91
2022-10-23T15:22:27.117Z,88.75
2022-10-23T15:24:57.602Z,88.56
2022-10-23T15:27:27.791Z,88.53
2022-10-23T15:29:58.032Z,88.58
2022-10-23T15:32:28.262Z,88.20
2022-10-23T15:35:00.248Z,88.14
2022-10-23T15:37:30.396Z,88.51
2022-10-23T15:40:02.393Z,88.56
2022-10-23T15:42:32.880Z,88.22
2022-10-23T15:45:02.989Z,87.71
2022-10-23T15:47:33.081Z,88.29
2022-10-23T15:50:03.470Z,87.99
2022-10-23T15:52:33.630Z,88.03
2022-10-23T15:55:04.400Z,88.08
2022-10-23T15:57:34.452Z,87.91
2022-10-23T16:00:06.929Z,87.90
2022-10-23T16:02:37.711Z,87.98
2022-10-23T16:05:08.103Z,87.63
2022-10-23T16:07:38.833Z,87.76
2022-10-23T16:10:09.181Z,87.83
2022-10-23T16:12:39.409Z,87.56
2022-10-23T16:15:12.710Z,88.05
2022-10-23T16:17:43.215Z,87.63
2022-10-23T16:20:13.578Z,87.66
2022-10-23T16:22:45.104Z,87.57
2022-10-23T16:25:15.319Z,87.29
2022-10-23T16:27:46.219Z,87.42
2022-10-23T16:30:17.417Z,87.39
2022-10-23T16:32:48.161Z,86.99
2022-10-23T16:35:18.664Z,87.19
2022-10-23T16:37:49.212Z,86.91
2022-10-23T16:40:19.395Z,87.00
2022-10-23T16:42:49.410Z,86.98
2022-10-23T16:45:19.559Z,86.93
2022-10-23T16:47:49.945Z,86.65
2022-10-23T16:50:20.110Z,86.77
2022-10-23T16:52:53.318Z,86.70
2022-10-23T16:55:25.773Z,86.23
2022-10-23T16:57:57.080Z,86.04
2022-10-23T17:00:35.000Z,86.62
2022-10-23T17:03:05.514Z,86.44
2022-10-23T17:05:35.890Z,86.35
2022-10-23T17:08:06.016Z,86.82
2022-10-23T17:10:36.164Z,86.53
2022-10-23T17:13:06.279Z,86.72
2022-10-23T17:15:36.533Z,86.67
2022-10-23T17:18:06.801Z,86.86
2022-10-23T17:20:37.057Z,86.68
2022-10-23T17:23:07.205Z,86.97
2022-10-23T17:25:40.944Z,87.52
2022-10-23T17:28:11.060Z,87.57
2022-10-23T17:30:42.427Z,87.84
2022-10-23T17:33:12.808Z,87.63
2022-10-23T17:35:44.765Z,87.69
2022-10-23T17:38:19.282Z,86.65
2022-10-23T17:40:49.377Z,87.35
2022-10-23T17:43:19.589Z,87.34
2022-10-23T17:45:51.894Z,87.29
2022-10-23T17:48:21.985Z,87.53
2022-10-23T17:51:05.115Z,87.21
2022-10-23T17:53:37.127Z,87.34
2022-10-23T17:56:10.389Z,87.42
2022-10-23T17:58:40.500Z,87.37
2022-10-23T18:01:13.643Z,87.05
2022-10-23T18:03:44.371Z,86.54
2022-10-23T18:06:23.373Z,86.75
2022-10-23T18:08:56.864Z,86.85
2022-10-23T18:11:30.274Z,86.43
2022-10-23T18:14:01.547Z,86.27
2022-10-23T18:16:32.084Z,86.47
2022-10-23T18:19:02.777Z,86.86
2022-10-23T18:21:33.029Z,87.26
2022-10-23T18:24:04.052Z,86.88
2022-10-23T18:26:39.381Z,87.11
2022-10-23T18:29:11.407Z,86.83
2022-10-23T18:31:41.912Z,86.92
2022-10-23T18:34:19.435Z,87.18
2022-10-23T18:36:51.549Z,86.96
2022-10-23T18:39:24.299Z,86.99
2022-10-23T18:41:57.327Z,86.63
2022-10-23T18:44:29.343Z,86.55
2022-10-23T18:47:00.430Z,86.96
2022-10-23T18:49:30.784Z,86.96
2022-10-23T18:52:00.845Z,86.41
2022-10-23T18:54:31.145Z,86.41
2022-10-23T18:57:01.239Z,86.96
2022-10-23T18:59:32.823Z,86.23
2022-10-23T19:02:03.729Z,86.55
2022-10-23T19:04:36.312Z,86.91
2022-10-23T19:07:06.613Z,86.13
2022-10-23T19:09:36.828Z,86.31
2022-10-23T19:12:07.213Z,86.30
2022-10-23T19:14:37.502Z,86.63
2022-10-23T19:17:18.390Z,86.66
2022-10-23T19:19:57.074Z,86.78
2022-10-23T19:22:34.363Z,86.74
2022-10-23T19:25:12.900Z,86.21
2022-10-23T19:27:45.930Z,85.99
2022-10-23T19:30:21.844Z,86.33
2022-10-23T19:32:52.928Z,86.00
2022-10-23T19:35:23.541Z,86.16
2022-10-23T19:37:53.732Z,86.37
2022-10-23T19:40:24.409Z,86.00
2022-10-23T19:42:54.881Z,86.03
2022-10-23T19:45:25.022Z,86.08
2022-10-23T19:47:55.133Z,85.65
2022-10-23T19:50:25.316Z,86.05
2022-10-23T19:52:55.511Z,86.41
2022-10-23T19:55:28.666Z,86.50
2022-10-23T19:57:58.806Z,85.91
2022-10-23T20:00:29.050Z,85.88
2022-10-23T20:03:00.197Z,85.71
2022-10-23T20:05:31.583Z,85.91
2022-10-23T20:08:01.816Z,85.92
2022-10-23T20:10:31.931Z,85.65
2022-10-23T20:13:18.782Z,85.65
2022-10-23T20:15:50.276Z,85.40
2022-10-23T20:18:20.949Z,84.98
2022-10-23T20:20:51.085Z,85.27
2022-10-23T20:23:21.272Z,85.93
2022-10-23T20:25:51.511Z,85.49
2022-10-23T20:28:21.937Z,85.22
2022-10-23T20:30:52.110Z,85.47
2022-10-23T20:33:22.832Z,85.82
2022-10-23T20:35:52.936Z,85.39
2022-10-23T20:38:23.251Z,85.73
2022-10-23T20:40:57.243Z,85.65
2022-10-23T20:43:27.634Z,85.04
2022-10-23T20:45:59.660Z,85.34
2022-10-23T20:48:29.791Z,85.81
2022-10-23T20:51:03.790Z,85.31
2022-10-23T20:53:35.581Z,85.33
2022-10-23T20:56:12.392Z,85.21
2022-10-23T20:58:42.809Z,85.36
2022-10-23T21:01:19.112Z,85.97
2022-10-23T21:03:51.305Z,85.52
2022-10-23T21:06:21.414Z,84.89
2022-10-23T21:09:03.622Z,85.73
2022-10-23T21:11:35.644Z,85.86
2022-10-23T21:14:05.939Z,85.73
2022-10-23T21:16:40.929Z,85.92
2022-10-23T21:19:14.449Z,85.84
2022-10-23T21:21:44.749Z,85.31
2022-10-23T21:24:16.622Z,85.58
2022-10-23T21:26:47.382Z,85.78
2022-10-23T21:29:19.045Z,86.05
2022-10-23T21:31:54.659Z,85.66
2022-10-23T21:34:26.307Z,85.49
2022-10-23T21:37:13.366Z,85.35
2022-10-23T21:39:44.671Z,85.65
2022-10-23T21:42:15.578Z,85.85
2022-10-23T21:44:45.904Z,85.92
2022-10-23T21:47:16.032Z,86.16
2022-10-23T21:49:46.261Z,86.04
2022-10-23T21:52:19.071Z,85.77
2022-10-23T21:54:53.879Z,85.76
2022-10-23T21:57:24.066Z,84.85
2022-10-23T21:59:54.861Z,85.72
2022-10-23T22:02:25.335Z,85.79
2022-10-23T22:04:55.601Z,85.83
2022-10-23T22:07:25.899Z,86.19
2022-10-23T22:09:55.986Z,86.33
2022-10-23T22:12:26.200Z,85.92
2022-10-23T22:14:56.447Z,85.91
2022-10-23T22:17:26.625Z,86.45
2022-10-23T22:19:56.823Z,86.20
2022-10-23T22:22:26.918Z,86.64
2022-10-23T22:24:57.113Z,86.54
2022-10-23T22:27:27.868Z,86.27
2022-10-23T22:29:58.686Z,86.37
2022-10-23T22:32:28.809Z,86.43
2022-10-23T22:34:58.991Z,86.68
2022-10-23T22:37:29.079Z,86.78
2022-10-23T22:40:00.352Z,86.40
2022-10-23T22:42:30.513Z,86.53
2022-10-23T22:45:00.658Z,86.40
2022-10-23T22:47:30.770Z,86.83
2022-10-23T22:50:00.791Z,86.93
2022-10-23T22:52:30.986Z,86.84
2022-10-23T22:55:01.146Z,86.68
2022-10-23T22:57:31.274Z,86.86
2022-10-23T23:00:01.400Z,86.98
2022-10-23T23:02:31.469Z,86.61
2022-10-23T23:05:01.638Z,86.74
2022-10-23T23:07:31.700Z,86.25
2022-10-23T23:10:01.843Z,86.42
2022-10-23T23:12:31.970Z,86.97
2022-10-23T23:15:02.189Z,86.50
2022-10-23T23:17:32.286Z,86.48
2022-10-23T23:20:02.648Z,86.55
2022-10-23T23:22:32.769Z,86.76
2022-10-23T23:25:02.825Z,86.67
2022-10-23T23:27:32.876Z,86.76
2022-10-23T23:30:05.668Z,86.60
2022-10-23T23:32:36.353Z,86.92
2022-10-23T23:35:06.609Z,86.91
2022-10-23T23:37:36.734Z,86.40
2022-10-23T23:40:07.440Z,86.38
2022-10-23T23:42:37.477Z,86.55
2022-10-23T23:45:14.654Z,86.71
2022-10-23T23:47:45.479Z,86.55
2022-10-23T23:50:16.296Z,86.10
2022-10-23T23:52:46.627Z,86.20
2022-10-23T23:55:16.928Z,86.25
2022-10-23T23:57:47.323Z,86.55
